sensor_id;sensor_type;location;lat;lon;timestamp;P1;durP1;ratioP1;P2;durP2;ratioP2
19739;SDS011;10027;51.066;13.768;2022-08-06T00:02:34;1.20;;;1.17;;
19739;SDS011;10027;51.066;13.768;2022-08-06T00:05:03;1.37;;;1.10;;
19739;SDS011;10027;51.066;13.768;2022-08-06T00:07:32;1.23;;;0.90;;
19739;SDS011;10027;51.066;13.768;2022-08-06T00:10:10;1.10;;;1.10;;
19739;SDS011;10027;51.066;13.768;2022-08-06T00:12:39;1.23;;;1.03;;
19739;SDS011;10027;51.066;13.768;2022-08-06T00:15:06;2.13;;;1.53;;
19739;SDS011;10027;51.066;13.768;2022-08-06T00:17:40;1.37;;;1.27;;
19739;SDS011;10027;51.066;13.768;2022-08-06T00:20:07;1.37;;;1.27;;
19739;SDS011;10027;51.066;13.768;2022-08-06T00:22:35;1.23;;;1.13;;
19739;SDS011;10027;51.066;13.768;2022-08-06T00:25:03;1.90;;;1.40;;
19739;SDS011;10027;51.066;13.768;2022-08-06T00:27:31;1.77;;;1.40;;
19739;SDS011;10027;51.066;13.768;2022-08-06T00:30:07;1.40;;;1.30;;
19739;SDS011;10027;51.066;13.768;2022-08-06T00:32:47;2.30;;;1.47;;
19739;SDS011;10027;51.066;13.768;2022-08-06T00:35:18;1.30;;;1.20;;
19739;SDS011;10027;51.066;13.768;2022-08-06T00:37:47;1.80;;;1.20;;
19739;SDS011;10027;51.066;13.768;2022-08-06T00:40:24;1.40;;;1.30;;
19739;SDS011;10027;51.066;13.768;2022-08-06T00:42:54;1.40;;;1.30;;
19739;SDS011;10027;51.066;13.768;2022-08-06T00:45:22;1.60;;;1.50;;
19739;SDS011;10027;51.066;13.768;2022-08-06T00:47:53;2.30;;;1.30;;
19739;SDS011;10027;51.066;13.768;2022-08-06T00:50:32;1.40;;;1.30;;
19739;SDS011;10027;51.066;13.768;2022-08-06T00:53:00;2.27;;;1.57;;
19739;SDS011;10027;51.066;13.768;2022-08-06T00:55:28;1.57;;;1.47;;
19739;SDS011;10027;51.066;13.768;2022-08-06T00:57:57;1.50;;;1.40;;
19739;SDS011;10027;51.066;13.768;2022-08-06T01:00:25;1.60;;;1.40;;
19739;SDS011;10027;51.066;13.768;2022-08-06T01:02:55;1.50;;;1.40;;
19739;SDS011;10027;51.066;13.768;2022-08-06T01:05:23;1.87;;;1.60;;
19739;SDS011;10027;51.066;13.768;2022-08-06T01:08:10;1.40;;;1.30;;
19739;SDS011;10027;51.066;13.768;2022-08-06T01:10:39;1.63;;;1.47;;
19739;SDS011;10027;51.066;13.768;2022-08-06T01:13:08;1.77;;;1.43;;
19739;SDS011;10027;51.066;13.768;2022-08-06T01:18:43;1.93;;;1.47;;
19739;SDS011;10027;51.066;13.768;2022-08-06T01:24:43;1.73;;;1.57;;
19739;SDS011;10027;51.066;13.768;2022-08-06T01:30:17;1.70;;;1.60;;
19739;SDS011;10027;51.066;13.768;2022-08-06T01:32:54;1.70;;;1.60;;
19739;SDS011;10027;51.066;13.768;2022-08-06T01:35:25;1.60;;;1.50;;
19739;SDS011;10027;51.066;13.768;2022-08-06T01:38:22;1.87;;;1.60;;
19739;SDS011;10027;51.066;13.768;2022-08-06T01:40:50;1.97;;;1.67;;
19739;SDS011;10027;51.066;13.768;2022-08-06T01:43:19;2.53;;;1.80;;
19739;SDS011;10027;51.066;13.768;2022-08-06T01:46:06;1.83;;;1.73;;
19739;SDS011;10027;51.066;13.768;2022-08-06T01:48:36;1.60;;;1.50;;
19739;SDS011;10027;51.066;13.768;2022-08-06T01:51:04;2.80;;;1.50;;
19739;SDS011;10027;51.066;13.768;2022-08-06T01:53:53;1.53;;;1.43;;
19739;SDS011;10027;51.066;13.768;2022-08-06T01:56:34;1.70;;;1.60;;
19739;SDS011;10027;51.066;13.768;2022-08-06T01:59:23;1.77;;;1.63;;
19739;SDS011;10027;51.066;13.768;2022-08-06T02:01:52;2.07;;;1.83;;
19739;SDS011;10027;51.066;13.768;2022-08-06T02:04:21;1.90;;;1.80;;
19739;SDS011;10027;51.066;13.768;2022-08-06T02:06:49;2.80;;;2.07;;
19739;SDS011;10027;51.066;13.768;2022-08-06T02:09:19;2.77;;;1.60;;
19739;SDS011;10027;51.066;13.768;2022-08-06T02:12:17;2.00;;;1.90;;
19739;SDS011;10027;51.066;13.768;2022-08-06T02:14:47;3.13;;;2.03;;
19739;SDS011;10027;51.066;13.768;2022-08-06T02:17:16;2.00;;;1.80;;
19739;SDS011;10027;51.066;13.768;2022-08-06T02:20:04;2.13;;;1.93;;
19739;SDS011;10027;51.066;13.768;2022-08-06T02:22:44;2.40;;;1.87;;
19739;SDS011;10027;51.066;13.768;2022-08-06T02:25:13;2.67;;;1.80;;
19739;SDS011;10027;51.066;13.768;2022-08-06T02:27:48;1.93;;;1.77;;
19739;SDS011;10027;51.066;13.768;2022-08-06T02:30:24;2.17;;;2.00;;
19739;SDS011;10027;51.066;13.768;2022-08-06T02:33:00;2.20;;;1.80;;
19739;SDS011;10027;51.066;13.768;2022-08-06T02:35:29;1.97;;;1.73;;
19739;SDS011;10027;51.066;13.768;2022-08-06T02:38:03;1.63;;;1.53;;
19739;SDS011;10027;51.066;13.768;2022-08-06T02:40:43;2.60;;;1.80;;
19739;SDS011;10027;51.066;13.768;2022-08-06T02:43:12;2.27;;;1.97;;
19739;SDS011;10027;51.066;13.768;2022-08-06T02:45:47;1.57;;;1.47;;
19739;SDS011;10027;51.066;13.768;2022-08-06T02:50:58;1.40;;;1.30;;
19739;SDS011;10027;51.066;13.768;2022-08-06T02:53:28;1.60;;;1.50;;
19739;SDS011;10027;51.066;13.768;2022-08-06T02:56:19;2.63;;;1.60;;
19739;SDS011;10027;51.066;13.768;2022-08-06T02:58:53;1.50;;;1.40;;
19739;SDS011;10027;51.066;13.768;2022-08-06T03:01:32;1.63;;;1.47;;
19739;SDS011;10027;51.066;13.768;2022-08-06T03:04:08;1.53;;;1.33;;
19739;SDS011;10027;51.066;13.768;2022-08-06T03:06:36;1.27;;;1.13;;
19739;SDS011;10027;51.066;13.768;2022-08-06T03:09:05;1.73;;;1.40;;
19739;SDS011;10027;51.066;13.768;2022-08-06T03:11:35;1.20;;;1.10;;
19739;SDS011;10027;51.066;13.768;2022-08-06T03:14:03;1.50;;;1.40;;
19739;SDS011;10027;51.066;13.768;2022-08-06T03:16:52;2.50;;;1.30;;
19739;SDS011;10027;51.066;13.768;2022-08-06T03:19:23;2.20;;;1.30;;
19739;SDS011;10027;51.066;13.768;2022-08-06T03:22:11;1.33;;;0.90;;
19739;SDS011;10027;51.066;13.768;2022-08-06T03:24:59;1.00;;;1.00;;
19739;SDS011;10027;51.066;13.768;2022-08-06T03:27:29;5.30;;;1.30;;
19739;SDS011;10027;51.066;13.768;2022-08-06T03:30:09;3.30;;;1.40;;
19739;SDS011;10027;51.066;13.768;2022-08-06T03:32:36;1.27;;;1.17;;
19739;SDS011;10027;51.066;13.768;2022-08-06T03:35:18;1.43;;;1.20;;
19739;SDS011;10027;51.066;13.768;2022-08-06T03:38:07;1.57;;;1.27;;
19739;SDS011;10027;51.066;13.768;2022-08-06T03:40:38;1.20;;;1.10;;
19739;SDS011;10027;51.066;13.768;2022-08-06T03:43:06;1.13;;;1.10;;
19739;SDS011;10027;51.066;13.768;2022-08-06T03:45:44;1.00;;;1.00;;
19739;SDS011;10027;51.066;13.768;2022-08-06T03:48:23;1.13;;;1.13;;
19739;SDS011;10027;51.066;13.768;2022-08-06T03:51:04;1.20;;;1.10;;
19739;SDS011;10027;51.066;13.768;2022-08-06T03:53:35;0.90;;;0.90;;
19739;SDS011;10027;51.066;13.768;2022-08-06T03:56:07;1.30;;;1.13;;
19739;SDS011;10027;51.066;13.768;2022-08-06T03:58:39;1.07;;;0.80;;
19739;SDS011;10027;51.066;13.768;2022-08-06T04:01:11;2.57;;;1.17;;
19739;SDS011;10027;51.066;13.768;2022-08-06T04:03:39;1.73;;;1.10;;
19739;SDS011;10027;51.066;13.768;2022-08-06T04:06:07;1.07;;;0.90;;
19739;SDS011;10027;51.066;13.768;2022-08-06T04:08:41;1.50;;;0.83;;
19739;SDS011;10027;51.066;13.768;2022-08-06T04:11:11;1.33;;;1.00;;
19739;SDS011;10027;51.066;13.768;2022-08-06T04:13:58;0.83;;;0.83;;
19739;SDS011;10027;51.066;13.768;2022-08-06T04:16:32;1.83;;;0.70;;
19739;SDS011;10027;51.066;13.768;2022-08-06T04:19:02;0.70;;;0.70;;
19739;SDS011;10027;51.066;13.768;2022-08-06T04:21:34;1.10;;;0.67;;
19739;SDS011;10027;51.066;13.768;2022-08-06T04:24:22;0.80;;;0.77;;
19739;SDS011;10027;51.066;13.768;2022-08-06T04:26:58;0.60;;;0.60;;
19739;SDS011;10027;51.066;13.768;2022-08-06T04:29:30;2.73;;;0.60;;
19739;SDS011;10027;51.066;13.768;2022-08-06T04:32:19;2.77;;;0.70;;
19739;SDS011;10027;51.066;13.768;2022-08-06T04:34:57;0.83;;;0.60;;
19739;SDS011;10027;51.066;13.768;2022-08-06T04:37:45;3.60;;;0.60;;
19739;SDS011;10027;51.066;13.768;2022-08-06T04:40:19;1.27;;;0.70;;
19739;SDS011;10027;51.066;13.768;2022-08-06T04:43:09;0.73;;;0.60;;
19739;SDS011;10027;51.066;13.768;2022-08-06T04:45:37;1.50;;;0.57;;
19739;SDS011;10027;51.066;13.768;2022-08-06T04:48:25;0.67;;;0.40;;
19739;SDS011;10027;51.066;13.768;2022-08-06T04:51:05;0.73;;;0.60;;
19739;SDS011;10027;51.066;13.768;2022-08-06T04:53:36;0.50;;;0.50;;
19739;SDS011;10027;51.066;13.768;2022-08-06T04:56:22;0.50;;;0.40;;
19739;SDS011;10027;51.066;13.768;2022-08-06T04:58:55;0.77;;;0.60;;
19739;SDS011;10027;51.066;13.768;2022-08-06T05:01:23;0.67;;;0.43;;
19739;SDS011;10027;51.066;13.768;2022-08-06T05:03:52;0.60;;;0.60;;
19739;SDS011;10027;51.066;13.768;2022-08-06T05:09:19;0.90;;;0.37;;
19739;SDS011;10027;51.066;13.768;2022-08-06T05:11:56;0.30;;;0.30;;
19739;SDS011;10027;51.066;13.768;2022-08-06T05:14:36;1.37;;;0.50;;
19739;SDS011;10027;51.066;13.768;2022-08-06T05:17:03;0.40;;;0.40;;
19739;SDS011;10027;51.066;13.768;2022-08-06T05:19:38;0.30;;;0.30;;
19739;SDS011;10027;51.066;13.768;2022-08-06T05:22:08;0.40;;;0.30;;
19739;SDS011;10027;51.066;13.768;2022-08-06T05:24:44;0.40;;;0.40;;
19739;SDS011;10027;51.066;13.768;2022-08-06T05:27:29;0.30;;;0.30;;
19739;SDS011;10027;51.066;13.768;2022-08-06T05:30:16;0.30;;;0.30;;
19739;SDS011;10027;51.066;13.768;2022-08-06T05:32:47;0.67;;;0.30;;
19739;SDS011;10027;51.066;13.768;2022-08-06T05:35:18;0.73;;;0.40;;
19739;SDS011;10027;51.066;13.768;2022-08-06T05:37:48;0.80;;;0.40;;
19739;SDS011;10027;51.066;13.768;2022-08-06T05:40:30;0.57;;;0.50;;
19739;SDS011;10027;51.066;13.768;2022-08-06T05:43:20;0.60;;;0.40;;
19739;SDS011;10027;51.066;13.768;2022-08-06T05:45:48;0.53;;;0.40;;
19739;SDS011;10027;51.066;13.768;2022-08-06T05:48:16;0.33;;;0.20;;
19739;SDS011;10027;51.066;13.768;2022-08-06T05:50:58;1.00;;;0.40;;
19739;SDS011;10027;51.066;13.768;2022-08-06T05:53:35;1.03;;;0.23;;
19739;SDS011;10027;51.066;13.768;2022-08-06T05:56:27;0.63;;;0.30;;
19739;SDS011;10027;51.066;13.768;2022-08-06T05:59:06;0.30;;;0.30;;
19739;SDS011;10027;51.066;13.768;2022-08-06T06:01:53;1.27;;;0.70;;
19739;SDS011;10027;51.066;13.768;2022-08-06T06:04:21;1.33;;;0.50;;
19739;SDS011;10027;51.066;13.768;2022-08-06T06:06:58;1.17;;;0.50;;
19739;SDS011;10027;51.066;13.768;2022-08-06T06:09:29;1.33;;;0.30;;
19739;SDS011;10027;51.066;13.768;2022-08-06T06:12:17;0.53;;;0.30;;
19739;SDS011;10027;51.066;13.768;2022-08-06T06:14:46;0.77;;;0.30;;
19739;SDS011;10027;51.066;13.768;2022-08-06T06:20:10;0.40;;;0.40;;
19739;SDS011;10027;51.066;13.768;2022-08-06T06:25:17;0.67;;;0.50;;
19739;SDS011;10027;51.066;13.768;2022-08-06T06:30:39;0.83;;;0.40;;
19739;SDS011;10027;51.066;13.768;2022-08-06T06:41:30;1.30;;;0.47;;
19739;SDS011;10027;51.066;13.768;2022-08-06T06:49:40;0.27;;;0.20;;
19739;SDS011;10027;51.066;13.768;2022-08-06T06:52:32;0.70;;;0.30;;
19739;SDS011;10027;51.066;13.768;2022-08-06T06:55:08;1.90;;;0.20;;
19739;SDS011;10027;51.066;13.768;2022-08-06T06:57:54;0.70;;;0.50;;
19739;SDS011;10027;51.066;13.768;2022-08-06T07:00:23;0.20;;;0.20;;
19739;SDS011;10027;51.066;13.768;2022-08-06T07:03:10;0.50;;;0.33;;
19739;SDS011;10027;51.066;13.768;2022-08-06T07:05:40;1.47;;;0.47;;
19739;SDS011;10027;51.066;13.768;2022-08-06T07:08:29;1.63;;;0.33;;
19739;SDS011;10027;51.066;13.768;2022-08-06T07:11:07;0.27;;;0.27;;
19739;SDS011;10027;51.066;13.768;2022-08-06T07:13:36;0.50;;;0.40;;
19739;SDS011;10027;51.066;13.768;2022-08-06T07:16:17;0.43;;;0.30;;
19739;SDS011;10027;51.066;13.768;2022-08-06T07:19:00;0.83;;;0.40;;
19739;SDS011;10027;51.066;13.768;2022-08-06T07:21:29;1.17;;;0.60;;
19739;SDS011;10027;51.066;13.768;2022-08-06T07:23:56;1.10;;;0.60;;
19739;SDS011;10027;51.066;13.768;2022-08-06T07:26:44;0.60;;;0.40;;
19739;SDS011;10027;51.066;13.768;2022-08-06T07:29:16;0.60;;;0.50;;
19739;SDS011;10027;51.066;13.768;2022-08-06T07:32:04;0.43;;;0.40;;
19739;SDS011;10027;51.066;13.768;2022-08-06T07:34:36;0.97;;;0.37;;
19739;SDS011;10027;51.066;13.768;2022-08-06T07:37:07;2.53;;;0.40;;
19739;SDS011;10027;51.066;13.768;2022-08-06T07:39:41;0.37;;;0.30;;
19739;SDS011;10027;51.066;13.768;2022-08-06T07:42:12;1.17;;;0.60;;
19739;SDS011;10027;51.066;13.768;2022-08-06T07:44:42;1.73;;;0.50;;
19739;SDS011;10027;51.066;13.768;2022-08-06T07:47:25;0.40;;;0.40;;
19739;SDS011;10027;51.066;13.768;2022-08-06T07:50:13;1.90;;;0.40;;
19739;SDS011;10027;51.066;13.768;2022-08-06T07:52:41;0.40;;;0.40;;
19739;SDS011;10027;51.066;13.768;2022-08-06T07:55:12;0.40;;;0.30;;
19739;SDS011;10027;51.066;13.768;2022-08-06T07:57:40;0.40;;;0.40;;
19739;SDS011;10027;51.066;13.768;2022-08-06T08:00:23;0.33;;;0.33;;
19739;SDS011;10027;51.066;13.768;2022-08-06T08:02:54;0.37;;;0.37;;
19739;SDS011;10027;51.066;13.768;2022-08-06T08:06:03;0.70;;;0.50;;
19739;SDS011;10027;51.066;13.768;2022-08-06T08:09:10;0.40;;;0.40;;
19739;SDS011;10027;51.066;13.768;2022-08-06T08:11:36;0.83;;;0.30;;
19739;SDS011;10027;51.066;13.768;2022-08-06T08:14:26;0.67;;;0.37;;
19739;SDS011;10027;51.066;13.768;2022-08-06T08:16:54;1.77;;;0.40;;
19739;SDS011;10027;51.066;13.768;2022-08-06T08:19:26;2.63;;;0.30;;
19739;SDS011;10027;51.066;13.768;2022-08-06T08:24:41;0.27;;;0.20;;
19739;SDS011;10027;51.066;13.768;2022-08-06T08:27:19;0.30;;;0.20;;
19739;SDS011;10027;51.066;13.768;2022-08-06T08:29:51;0.53;;;0.40;;
19739;SDS011;10027;51.066;13.768;2022-08-06T08:32:20;0.37;;;0.20;;
19739;SDS011;10027;51.066;13.768;2022-08-06T08:34:48;0.27;;;0.20;;
19739;SDS011;10027;51.066;13.768;2022-08-06T08:37:18;0.73;;;0.30;;
19739;SDS011;10027;51.066;13.768;2022-08-06T08:39:46;0.57;;;0.33;;
19739;SDS011;10027;51.066;13.768;2022-08-06T08:42:19;0.30;;;0.30;;
19739;SDS011;10027;51.066;13.768;2022-08-06T08:44:57;0.57;;;0.40;;
19739;SDS011;10027;51.066;13.768;2022-08-06T08:47:25;0.40;;;0.30;;
19739;SDS011;10027;51.066;13.768;2022-08-06T08:50:13;0.83;;;0.40;;
19739;SDS011;10027;51.066;13.768;2022-08-06T08:52:44;0.60;;;0.30;;
19739;SDS011;10027;51.066;13.768;2022-08-06T08:55:13;0.87;;;0.40;;
19739;SDS011;10027;51.066;13.768;2022-08-06T08:58:02;0.95;;;0.30;;
19739;SDS011;10027;51.066;13.768;2022-08-06T09:00:49;1.20;;;0.30;;
19739;SDS011;10027;51.066;13.768;2022-08-06T09:03:19;0.50;;;0.20;;
19739;SDS011;10027;51.066;13.768;2022-08-06T09:05:48;0.77;;;0.30;;
19739;SDS011;10027;51.066;13.768;2022-08-06T09:08:18;0.23;;;0.20;;
19739;SDS011;10027;51.066;13.768;2022-08-06T09:11:06;0.30;;;0.23;;
19739;SDS011;10027;51.066;13.768;2022-08-06T09:13:53;1.03;;;0.30;;
19739;SDS011;10027;51.066;13.768;2022-08-06T09:16:26;0.40;;;0.30;;
19739;SDS011;10027;51.066;13.768;2022-08-06T09:18:58;0.98;;;0.20;;
19739;SDS011;10027;51.066;13.768;2022-08-06T09:21:25;0.40;;;0.40;;
19739;SDS011;10027;51.066;13.768;2022-08-06T09:23:54;0.50;;;0.30;;
19739;SDS011;10027;51.066;13.768;2022-08-06T09:26:24;0.30;;;0.20;;
19739;SDS011;10027;51.066;13.768;2022-08-06T09:29:21;1.02;;;0.30;;
19739;SDS011;10027;51.066;13.768;2022-08-06T09:32:01;0.30;;;0.30;;
19739;SDS011;10027;51.066;13.768;2022-08-06T09:34:40;0.50;;;0.30;;
19739;SDS011;10027;51.066;13.768;2022-08-06T09:37:15;1.08;;;0.25;;
19739;SDS011;10027;51.066;13.768;2022-08-06T09:40:12;0.30;;;0.25;;
19739;SDS011;10027;51.066;13.768;2022-08-06T09:42:42;0.80;;;0.40;;
19739;SDS011;10027;51.066;13.768;2022-08-06T09:45:10;0.20;;;0.20;;
19739;SDS011;10027;51.066;13.768;2022-08-06T09:47:43;1.38;;;0.40;;
19739;SDS011;10027;51.066;13.768;2022-08-06T09:53:02;0.22;;;0.20;;
19739;SDS011;10027;51.066;13.768;2022-08-06T09:55:40;0.47;;;0.20;;
19739;SDS011;10027;51.066;13.768;2022-08-06T09:58:07;0.22;;;0.22;;
19739;SDS011;10027;51.066;13.768;2022-08-06T10:00:35;0.50;;;0.20;;
19739;SDS011;10027;51.066;13.768;2022-08-06T10:03:04;1.17;;;0.22;;
19739;SDS011;10027;51.066;13.768;2022-08-06T10:06:04;0.43;;;0.30;;
19739;SDS011;10027;51.066;13.768;2022-08-06T10:08:36;0.20;;;0.20;;
19739;SDS011;10027;51.066;13.768;2022-08-06T10:11:04;0.57;;;0.30;;
19739;SDS011;10027;51.066;13.768;2022-08-06T10:13:32;0.40;;;0.40;;
19739;SDS011;10027;51.066;13.768;2022-08-06T10:16:19;0.73;;;0.30;;
19739;SDS011;10027;51.066;13.768;2022-08-06T10:18:54;1.25;;;0.30;;
19739;SDS011;10027;51.066;13.768;2022-08-06T10:21:27;0.50;;;0.30;;
19739;SDS011;10027;51.066;13.768;2022-08-06T10:24:07;0.97;;;0.30;;
19739;SDS011;10027;51.066;13.768;2022-08-06T10:26:35;0.80;;;0.30;;
19739;SDS011;10027;51.066;13.768;2022-08-06T10:29:03;1.20;;;0.20;;
19739;SDS011;10027;51.066;13.768;2022-08-06T10:31:32;1.97;;;0.30;;
19739;SDS011;10027;51.066;13.768;2022-08-06T10:36:35;0.20;;;0.20;;
19739;SDS011;10027;51.066;13.768;2022-08-06T10:39:02;1.07;;;0.40;;
19739;SDS011;10027;51.066;13.768;2022-08-06T10:41:50;0.23;;;0.20;;
19739;SDS011;10027;51.066;13.768;2022-08-06T10:44:32;0.90;;;0.30;;
19739;SDS011;10027;51.066;13.768;2022-08-06T10:47:07;0.50;;;0.27;;
19739;SDS011;10027;51.066;13.768;2022-08-06T10:49:36;0.90;;;0.40;;
19739;SDS011;10027;51.066;13.768;2022-08-06T10:52:23;0.30;;;0.20;;
19739;SDS011;10027;51.066;13.768;2022-08-06T10:54:51;0.40;;;0.20;;
19739;SDS011;10027;51.066;13.768;2022-08-06T10:57:18;2.67;;;0.30;;
19739;SDS011;10027;51.066;13.768;2022-08-06T11:00:02;0.20;;;0.20;;
19739;SDS011;10027;51.066;13.768;2022-08-06T11:05:23;1.73;;;0.33;;
19739;SDS011;10027;51.066;13.768;2022-08-06T11:08:00;0.63;;;0.30;;
19739;SDS011;10027;51.066;13.768;2022-08-06T11:13:31;0.57;;;0.20;;
19739;SDS011;10027;51.066;13.768;2022-08-06T11:16:23;0.97;;;0.10;;
19739;SDS011;10027;51.066;13.768;2022-08-06T11:19:04;0.60;;;0.20;;
19739;SDS011;10027;51.066;13.768;2022-08-06T11:21:42;1.40;;;0.30;;
19739;SDS011;10027;51.066;13.768;2022-08-06T11:24:29;1.13;;;0.40;;
19739;SDS011;10027;51.066;13.768;2022-08-06T11:27:03;0.13;;;0.13;;
19739;SDS011;10027;51.066;13.768;2022-08-06T11:32:42;1.50;;;0.30;;
19739;SDS011;10027;51.066;13.768;2022-08-06T11:35:53;0.40;;;0.23;;
19739;SDS011;10027;51.066;13.768;2022-08-06T11:38:09;0.43;;;0.30;;
19739;SDS011;10027;51.066;13.768;2022-08-06T11:41:02;0.50;;;0.20;;
19739;SDS011;10027;51.066;13.768;2022-08-06T11:59:31;0.37;;;0.10;;
19739;SDS011;10027;51.066;13.768;2022-08-06T12:02:06;0.83;;;0.30;;
19739;SDS011;10027;51.066;13.768;2022-08-06T12:07:17;0.50;;;0.20;;
19739;SDS011;10027;51.066;13.768;2022-08-06T12:18:02;0.80;;;0.30;;
19739;SDS011;10027;51.066;13.768;2022-08-06T12:20:50;0.20;;;0.20;;
19739;SDS011;10027;51.066;13.768;2022-08-06T12:23:21;1.40;;;0.33;;
19739;SDS011;10027;51.066;13.768;2022-08-06T12:26:09;1.17;;;0.20;;
19739;SDS011;10027;51.066;13.768;2022-08-06T12:28:37;0.10;;;0.10;;
19739;SDS011;10027;51.066;13.768;2022-08-06T12:31:04;0.20;;;0.20;;
19739;SDS011;10027;51.066;13.768;2022-08-06T12:33:51;1.27;;;0.27;;
19739;SDS011;10027;51.066;13.768;2022-08-06T12:36:19;0.27;;;0.20;;
19739;SDS011;10027;51.066;13.768;2022-08-06T12:39:00;0.20;;;0.20;;
19739;SDS011;10027;51.066;13.768;2022-08-06T12:41:33;0.30;;;0.20;;
19739;SDS011;10027;51.066;13.768;2022-08-06T12:44:11;0.20;;;0.20;;
19739;SDS011;10027;51.066;13.768;2022-08-06T12:46:45;0.77;;;0.30;;
19739;SDS011;10027;51.066;13.768;2022-08-06T12:49:28;0.20;;;0.20;;
19739;SDS011;10027;51.066;13.768;2022-08-06T12:52:17;0.30;;;0.20;;
19739;SDS011;10027;51.066;13.768;2022-08-06T12:54:55;0.20;;;0.20;;
19739;SDS011;10027;51.066;13.768;2022-08-06T12:57:23;0.20;;;0.20;;
19739;SDS011;10027;51.066;13.768;2022-08-06T13:00:10;0.53;;;0.20;;
19739;SDS011;10027;51.066;13.768;2022-08-06T13:02:40;0.63;;;0.23;;
19739;SDS011;10027;51.066;13.768;2022-08-06T13:05:11;0.20;;;0.20;;
19739;SDS011;10027;51.066;13.768;2022-08-06T13:07:40;1.03;;;0.27;;
19739;SDS011;10027;51.066;13.768;2022-08-06T13:10:10;1.30;;;0.20;;
19739;SDS011;10027;51.066;13.768;2022-08-06T13:12:58;0.30;;;0.30;;
19739;SDS011;10027;51.066;13.768;2022-08-06T13:16:02;0.40;;;0.20;;
19739;SDS011;10027;51.066;13.768;2022-08-06T13:18:29;1.33;;;0.20;;
19739;SDS011;10027;51.066;13.768;2022-08-06T13:21:21;0.73;;;0.30;;
19739;SDS011;10027;51.066;13.768;2022-08-06T13:23:52;2.37;;;0.40;;
19739;SDS011;10027;51.066;13.768;2022-08-06T13:29:06;0.97;;;0.17;;
19739;SDS011;10027;51.066;13.768;2022-08-06T13:32:27;0.43;;;0.30;;
19739;SDS011;10027;51.066;13.768;2022-08-06T13:34:59;0.40;;;0.20;;
19739;SDS011;10027;51.066;13.768;2022-08-06T13:41:04;0.27;;;0.20;;
19739;SDS011;10027;51.066;13.768;2022-08-06T13:43:42;1.23;;;0.30;;
19739;SDS011;10027;51.066;13.768;2022-08-06T13:46:21;0.17;;;0.17;;
19739;SDS011;10027;51.066;13.768;2022-08-06T13:48:55;0.20;;;0.20;;
19739;SDS011;10027;51.066;13.768;2022-08-06T13:51:24;0.33;;;0.27;;
19739;SDS011;10027;51.066;13.768;2022-08-06T13:53:54;0.63;;;0.23;;
19739;SDS011;10027;51.066;13.768;2022-08-06T13:56:22;0.23;;;0.20;;
19739;SDS011;10027;51.066;13.768;2022-08-06T13:58:55;1.53;;;0.20;;
19739;SDS011;10027;51.066;13.768;2022-08-06T14:01:22;0.10;;;0.10;;
19739;SDS011;10027;51.066;13.768;2022-08-06T14:04:00;0.30;;;0.20;;
19739;SDS011;10027;51.066;13.768;2022-08-06T14:06:27;0.30;;;0.30;;
19739;SDS011;10027;51.066;13.768;2022-08-06T14:08:58;2.00;;;1.43;;
19739;SDS011;10027;51.066;13.768;2022-08-06T14:11:26;1.50;;;1.40;;
19739;SDS011;10027;51.066;13.768;2022-08-06T14:14:01;1.50;;;1.33;;
19739;SDS011;10027;51.066;13.768;2022-08-06T14:16:30;0.90;;;0.70;;
19739;SDS011;10027;51.066;13.768;2022-08-06T14:18:59;0.80;;;0.40;;
19739;SDS011;10027;51.066;13.768;2022-08-06T14:21:46;0.47;;;0.40;;
19739;SDS011;10027;51.066;13.768;2022-08-06T14:24:14;0.83;;;0.30;;
19739;SDS011;10027;51.066;13.768;2022-08-06T14:26:50;0.53;;;0.30;;
19739;SDS011;10027;51.066;13.768;2022-08-06T14:29:21;0.50;;;0.50;;
19739;SDS011;10027;51.066;13.768;2022-08-06T14:32:09;0.67;;;0.40;;
19739;SDS011;10027;51.066;13.768;2022-08-06T14:34:37;0.47;;;0.23;;
19739;SDS011;10027;51.066;13.768;2022-08-06T14:37:10;0.20;;;0.20;;
19739;SDS011;10027;51.066;13.768;2022-08-06T14:39:39;0.40;;;0.40;;
19739;SDS011;10027;51.066;13.768;2022-08-06T14:42:25;0.17;;;0.17;;
19739;SDS011;10027;51.066;13.768;2022-08-06T14:45:13;0.20;;;0.20;;
19739;SDS011;10027;51.066;13.768;2022-08-06T14:47:47;0.40;;;0.37;;
19739;SDS011;10027;51.066;13.768;2022-08-06T14:50:25;0.20;;;0.20;;
19739;SDS011;10027;51.066;13.768;2022-08-06T14:53:06;0.20;;;0.20;;
19739;SDS011;10027;51.066;13.768;2022-08-06T14:55:41;0.20;;;0.20;;
19739;SDS011;10027;51.066;13.768;2022-08-06T14:58:28;0.40;;;0.30;;
19739;SDS011;10027;51.066;13.768;2022-08-06T15:00:56;0.17;;;0.17;;
19739;SDS011;10027;51.066;13.768;2022-08-06T15:03:23;0.20;;;0.20;;
19739;SDS011;10027;51.066;13.768;2022-08-06T15:05:58;0.73;;;0.20;;
19739;SDS011;10027;51.066;13.768;2022-08-06T15:08:32;0.60;;;0.40;;
19739;SDS011;10027;51.066;13.768;2022-08-06T15:11:01;0.20;;;0.20;;
19739;SDS011;10027;51.066;13.768;2022-08-06T15:13:39;0.60;;;0.20;;
19739;SDS011;10027;51.066;13.768;2022-08-06T15:16:06;0.10;;;0.10;;
19739;SDS011;10027;51.066;13.768;2022-08-06T15:18:54;0.30;;;0.30;;
19739;SDS011;10027;51.066;13.768;2022-08-06T15:21:41;0.53;;;0.30;;
19739;SDS011;10027;51.066;13.768;2022-08-06T15:24:20;0.73;;;0.20;;
19739;SDS011;10027;51.066;13.768;2022-08-06T15:26:50;0.20;;;0.20;;
19739;SDS011;10027;51.066;13.768;2022-08-06T15:29:20;0.60;;;0.30;;
19739;SDS011;10027;51.066;13.768;2022-08-06T15:31:50;0.10;;;0.10;;
19739;SDS011;10027;51.066;13.768;2022-08-06T15:34:17;1.40;;;0.30;;
19739;SDS011;10027;51.066;13.768;2022-08-06T15:36:53;0.10;;;0.10;;
19739;SDS011;10027;51.066;13.768;2022-08-06T15:39:27;0.30;;;0.20;;
19739;SDS011;10027;51.066;13.768;2022-08-06T15:42:14;0.23;;;0.20;;
19739;SDS011;10027;51.066;13.768;2022-08-06T15:44:43;0.40;;;0.20;;
19739;SDS011;10027;51.066;13.768;2022-08-06T15:47:11;0.70;;;0.30;;
19739;SDS011;10027;51.066;13.768;2022-08-06T15:49:40;0.20;;;0.20;;
19739;SDS011;10027;51.066;13.768;2022-08-06T15:52:28;0.40;;;0.20;;
19739;SDS011;10027;51.066;13.768;2022-08-06T15:54:58;0.30;;;0.30;;
19739;SDS011;10027;51.066;13.768;2022-08-06T15:57:26;0.30;;;0.30;;
19739;SDS011;10027;51.066;13.768;2022-08-06T16:00:13;0.57;;;0.30;;
19739;SDS011;10027;51.066;13.768;2022-08-06T16:02:43;0.10;;;0.10;;
19739;SDS011;10027;51.066;13.768;2022-08-06T16:05:15;0.20;;;0.20;;
19739;SDS011;10027;51.066;13.768;2022-08-06T16:08:03;0.30;;;0.20;;
19739;SDS011;10027;51.066;13.768;2022-08-06T16:10:30;0.30;;;0.30;;
19739;SDS011;10027;51.066;13.768;2022-08-06T16:13:00;0.30;;;0.30;;
19739;SDS011;10027;51.066;13.768;2022-08-06T16:15:28;0.20;;;0.20;;
19739;SDS011;10027;51.066;13.768;2022-08-06T16:18:01;0.27;;;0.27;;
19739;SDS011;10027;51.066;13.768;2022-08-06T16:20:49;0.23;;;0.23;;
19739;SDS011;10027;51.066;13.768;2022-08-06T16:23:16;0.47;;;0.40;;
19739;SDS011;10027;51.066;13.768;2022-08-06T16:26:04;0.27;;;0.20;;
19739;SDS011;10027;51.066;13.768;2022-08-06T16:28:51;1.23;;;0.23;;
19739;SDS011;10027;51.066;13.768;2022-08-06T16:31:21;0.27;;;0.20;;
19739;SDS011;10027;51.066;13.768;2022-08-06T16:34:03;0.30;;;0.20;;
19739;SDS011;10027;51.066;13.768;2022-08-06T16:36:36;1.33;;;0.30;;
19739;SDS011;10027;51.066;13.768;2022-08-06T16:39:07;0.30;;;0.30;;
19739;SDS011;10027;51.066;13.768;2022-08-06T16:41:38;0.93;;;0.27;;
19739;SDS011;10027;51.066;13.768;2022-08-06T16:44:24;1.90;;;0.30;;
19739;SDS011;10027;51.066;13.768;2022-08-06T16:47:01;0.57;;;0.20;;
19739;SDS011;10027;51.066;13.768;2022-08-06T16:49:32;0.20;;;0.20;;
19739;SDS011;10027;51.066;13.768;2022-08-06T16:52:19;1.47;;;0.23;;